Time;durP1;ratioP1;P1;durP2;ratioP2;P2;SDS_P1;SDS_P2;PMS_P1;PMS_P2;Temp;Humidity;BMP_temperature;BMP_pressure;BME280_temperature;BME280_humidity;BME280_pressure;Samples;Min_cycle;Max_cycle;Signal;HPM_P1;HPM_P2
2023/11/05 00:02:08;;;;;;;2.97;0.80;;;;;;;10.09;100.00;96688.56;5052297;28;20048;-74
2023/11/05 00:04:37;;;;;;;2.88;0.80;;;;;;;10.08;100.00;96673.69;5049810;28;20053;-74
2023/11/05 00:07:06;;;;;;;3.70;0.77;;;;;;;9.94;100.00;96666.34;5048650;28;20477;-74
2023/11/05 00:09:35;;;;;;;3.28;1.05;;;;;;;9.98;100.00;96683.56;5045281;28;20080;-79
2023/11/05 00:12:06;;;;;;;3.38;0.88;;;;;;;10.02;100.00;96681.44;5065498;28;20072;-75
2023/11/05 00:14:36;;;;;;;3.50;0.60;;;;;;;10.08;100.00;96673.69;5052055;28;20037;-75
2023/11/05 00:17:11;;;;;;;2.75;1.00;;;;;;;10.12;100.00;96675.03;5044767;28;20048;-74
2023/11/05 00:19:42;;;;;;;4.10;0.90;;;;;;;10.09;100.00;96653.34;5050627;28;20059;-75
2023/11/05 00:25:02;;;;;;;2.60;0.90;;;;;;;10.02;100.00;96652.34;5049204;28;20048;-74
2023/11/05 00:27:30;;;;;;;2.53;0.90;;;;;;;10.05;100.00;96650.22;5040439;28;20057;-74
2023/11/05 00:29:59;;;;;;;4.55;1.20;;;;;;;9.70;100.00;96608.13;5051648;28;20639;-74
2023/11/05 00:32:28;;;;;;;4.45;1.17;;;;;;;9.94;100.00;96652.31;5053331;28;20049;-75
2023/11/05 00:34:57;;;;;;;4.20;0.85;;;;;;;9.88;100.00;96647.69;5067492;28;20072;-75
2023/11/05 00:37:26;;;;;;;3.72;0.90;;;;;;;9.87;100.00;96662.69;5064329;28;20050;-74
2023/11/05 00:39:55;;;;;;;3.03;1.00;;;;;;;9.89;100.00;96657.25;5059095;28;20071;-74
2023/11/05 00:42:24;;;;;;;5.07;0.70;;;;;;;9.91;100.00;96650.84;5044671;28;20116;-75
2023/11/05 00:44:52;;;;;;;1.98;0.70;;;;;;;10.02;100.00;96633.84;5058862;28;20199;-74
2023/11/05 00:47:22;;;;;;;4.32;0.70;;;;;;;9.91;100.00;96615.66;5017065;28;20136;-75
2023/11/05 00:49:50;;;;;;;2.83;0.88;;;;;;;9.99;100.00;96629.72;5078773;28;20041;-75
2023/11/05 00:52:22;;;;;;;3.47;0.90;;;;;;;10.01;100.00;96619.81;5051531;28;20044;-74
2023/11/05 00:54:53;;;;;;;3.47;0.73;;;;;;;9.98;100.00;96616.66;5049976;28;20057;-74
2023/11/05 00:57:21;;;;;;;1.63;0.50;;;;;;;9.94;100.00;96623.25;5043908;28;20049;-75
2023/11/05 00:59:49;;;;;;;4.30;0.63;;;;;;;9.92;100.00;96623.41;5052351;28;20058;-75
2023/11/05 01:02:18;;;;;;;1.48;0.60;;;;;;;10.04;100.00;96610.75;5056225;28;20530;-74
2023/11/05 01:04:50;;;;;;;2.70;0.70;;;;;;;10.11;100.00;96602.00;5049366;28;20049;-77
2023/11/05 01:07:18;;;;;;;;;;;;;;;10.13;100.00;96607.94;5050530;28;20041;-75
2023/11/05 01:09:46;;;;;;;2.20;0.60;;;;;;;10.15;100.00;96602.50;5043505;28;19920;-74
2023/11/05 01:12:14;;;;;;;4.03;1.10;;;;;;;10.15;100.00;96595.41;5039482;28;20130;-75
2023/11/05 01:14:43;;;;;;;2.50;0.65;;;;;;;10.14;100.00;96591.09;5046864;28;20422;-74
2023/11/05 01:17:12;;;;;;;1.70;0.70;;;;;;;10.08;100.00;96581.16;5059643;28;20049;-73
2023/11/05 01:19:40;;;;;;;2.85;0.50;;;;;;;10.19;100.00;96594.13;5041893;28;20052;-74
2023/11/05 01:22:12;;;;;;;2.40;0.60;;;;;;;10.24;100.00;96593.63;5047053;28;20058;-74
2023/11/05 01:24:42;;;;;;;3.72;0.50;;;;;;;10.26;100.00;96596.09;5031449;28;20077;-74
2023/11/05 01:27:10;;;;;;;2.10;0.40;;;;;;;10.30;100.00;96581.56;5047276;28;20040;-74
2023/11/05 01:29:37;;;;;;;4.88;0.75;;;;;;;10.38;100.00;96579.78;5044033;28;20041;-74
2023/11/05 01:32:07;;;;;;;1.50;0.52;;;;;;;10.36;100.00;96578.28;5043298;28;20045;-74
2023/11/05 01:34:35;;;;;;;1.98;0.50;;;;;;;10.35;100.00;96566.06;5049519;28;20053;-75
2023/11/05 01:37:04;;;;;;;3.03;0.60;;;;;;;10.31;100.00;96559.44;5050265;28;20060;-74
2023/11/05 01:39:35;;;;;;;1.23;0.55;;;;;;;10.15;100.00;96531.94;5040784;28;20520;-75
2023/11/05 01:42:04;;;;;;;3.42;0.57;;;;;;;10.22;100.00;96532.16;5046387;28;20048;-75
2023/11/05 01:44:32;;;;;;;2.90;0.45;;;;;;;10.36;100.00;96543.91;5049536;28;20041;-74
2023/11/05 01:47:03;;;;;;;1.15;0.57;;;;;;;10.39;100.00;96546.22;5052317;28;20093;-74
2023/11/05 01:49:32;;;;;;;2.08;0.60;;;;;;;10.33;100.00;96528.38;5043784;28;20069;-74
2023/11/05 01:52:00;;;;;;;1.30;0.57;;;;;;;10.31;100.00;96533.00;5049393;28;20065;-76
2023/11/05 01:54:29;;;;;;;1.10;0.22;;;;;;;10.32;100.00;96513.50;5032622;28;20175;-75
2023/11/05 01:57:04;;;;;;;1.20;0.50;;;;;;;10.36;100.00;96510.34;5035212;28;20049;-74
2023/11/05 01:59:35;;;;;;;1.95;0.50;;;;;;;10.33;100.00;96502.75;5044067;28;20459;-75
2023/11/05 02:02:06;;;;;;;1.67;0.68;;;;;;;10.43;100.00;96494.63;5053192;28;20051;-74
2023/11/05 02:04:35;;;;;;;1.27;0.28;;;;;;;10.49;100.00;96500.09;5062275;28;20049;-75
2023/11/05 02:07:04;;;;;;;0.82;0.40;;;;;;;10.62;100.00;96502.22;5049467;28;20109;-74
2023/11/05 02:09:33;;;;;;;3.60;0.50;;;;;;;10.55;100.00;96488.84;5038811;28;20053;-76
2023/11/05 02:12:07;;;;;;;2.55;0.68;;;;;;;10.60;100.00;96479.59;5051061;28;20056;-75
2023/11/05 02:14:38;;;;;;;4.30;0.57;;;;;;;10.60;100.00;96475.13;5053801;28;20049;-74
2023/11/05 02:17:06;;;;;;;3.40;0.70;;;;;;;10.62;100.00;96467.84;5053818;28;20041;-74
2023/11/05 02:19:37;;;;;;;2.47;0.80;;;;;;;10.58;100.00;96460.41;5045072;28;20047;-74
2023/11/05 02:22:11;;;;;;;4.10;0.68;;;;;;;10.57;100.00;96459.56;5068716;28;20144;-73
2023/11/05 02:24:43;;;;;;;2.88;0.60;;;;;;;10.63;100.00;96460.72;5051955;28;20044;-74
2023/11/05 02:27:14;;;;;;;1.63;0.57;;;;;;;10.71;100.00;96452.78;5050907;28;20044;-74
2023/11/05 02:29:42;;;;;;;2.83;0.40;;;;;;;10.70;100.00;96443.22;5040980;28;20132;-74
2023/11/05 02:32:12;;;;;;;4.68;0.60;;;;;;;10.64;100.00;96436.75;5063087;28;20084;-77
2023/11/05 02:34:43;;;;;;;2.30;0.40;;;;;;;10.64;100.00;96441.22;5049479;28;20111;-74
2023/11/05 02:37:11;;;;;;;3.20;0.55;;;;;;;10.63;100.00;96440.41;5044713;28;20490;-75
2023/11/05 02:39:41;;;;;;;2.78;0.50;;;;;;;10.57;100.00;96441.06;5040815;28;20049;-74
2023/11/05 02:42:09;;;;;;;1.15;0.40;;;;;;;10.54;100.00;96428.19;5046453;28;21586;-74
2023/11/05 02:44:37;;;;;;;2.17;0.55;;;;;;;10.67;100.00;96432.97;5050648;28;20141;-74
2023/11/05 02:47:05;;;;;;;4.05;0.50;;;;;;;10.67;100.00;96425.84;5032142;28;20049;-73
2023/11/05 02:49:34;;;;;;;4.53;0.68;;;;;;;10.73;100.00;96438.38;5044384;28;20742;-75
2023/11/05 02:52:02;;;;;;;0.80;0.38;;;;;;;10.60;100.00;96405.50;5051711;28;20562;-76
2023/11/05 02:54:34;;;;;;;2.95;0.40;;;;;;;10.77;100.00;96437.06;5047357;28;20490;-74
2023/11/05 02:57:05;;;;;;;1.52;0.40;;;;;;;10.89;100.00;96427.75;5047329;28;20044;-75
2023/11/05 02:59:35;;;;;;;1.23;0.47;;;;;;;10.82;100.00;96421.50;5058760;28;20057;-74
2023/11/05 03:02:03;;;;;;;0.82;0.45;;;;;;;10.76;100.00;96422.16;5056447;28;20071;-74
2023/11/05 03:04:34;;;;;;;4.50;0.88;;;;;;;10.76;100.00;96413.41;5051865;28;20095;-75
2023/11/05 03:07:03;;;;;;;3.53;0.60;;;;;;;10.71;100.00;96411.25;5047572;28;20051;-76
2023/11/05 03:09:31;;;;;;;1.92;0.40;;;;;;;10.84;100.00;96408.94;5045416;28;20106;-75
2023/11/05 03:11:59;;;;;;;2.75;0.50;;;;;;;10.83;100.00;96417.88;5037195;28;20053;-76
2023/11/05 03:14:31;;;;;;;1.05;0.40;;;;;;;10.66;100.00;96405.66;5055626;28;20060;-76
2023/11/05 03:17:00;;;;;;;1.70;0.40;;;;;;;10.80;100.00;96409.44;5053585;28;20067;-76
2023/11/05 03:19:30;;;;;;;1.92;0.55;;;;;;;10.88;100.00;96420.81;5046268;28;20443;-75
2023/11/05 03:21:58;;;;;;;3.80;0.60;;;;;;;10.89;100.00;96417.16;5052926;28;20516;-75
2023/11/05 03:24:27;;;;;;;2.17;0.60;;;;;;;10.85;100.00;96412.41;5055465;28;20563;-75
2023/11/05 03:26:55;;;;;;;2.40;0.43;;;;;;;10.94;100.00;96397.31;5051812;28;20049;-76
2023/11/05 03:29:24;;;;;;;2.88;0.60;;;;;;;11.03;100.00;96402.38;5045873;28;20056;-75
2023/11/05 03:31:53;;;;;;;3.85;0.75;;;;;;;10.99;100.00;96402.91;5050719;28;20064;-75
2023/11/05 03:34:22;;;;;;;2.50;0.55;;;;;;;11.10;100.00;96405.19;5057086;28;20393;-76
2023/11/05 03:36:51;;;;;;;2.10;0.68;;;;;;;11.03;100.00;96415.63;5058602;28;20071;-76
2023/11/05 03:39:20;;;;;;;2.30;0.60;;;;;;;11.07;100.00;96405.53;5051066;28;20112;-75
2023/11/05 03:41:49;;;;;;;2.50;0.70;;;;;;;10.88;100.00;96393.50;5054271;28;20777;-75
2023/11/05 03:44:18;;;;;;;2.22;0.70;;;;;;;10.99;100.00;96410.88;5051078;28;20052;-75
2023/11/05 03:46:46;;;;;;;2.13;0.45;;;;;;;10.94;100.00;96395.47;5068566;28;20059;-76
2023/11/05 03:49:17;;;;;;;3.08;0.50;;;;;;;10.98;100.00;96415.31;5032234;28;20080;-75
2023/11/05 03:51:46;;;;;;;2.83;0.50;;;;;;;10.94;100.00;96419.31;5053394;28;20046;-74
2023/11/05 03:54:15;;;;;;;4.85;0.70;;;;;;;10.97;100.00;96418.97;5051598;28;20049;-75
2023/11/05 03:56:44;;;;;;;4.05;0.75;;;;;;;10.91;100.00;96414.34;5061278;28;20416;-75
2023/11/05 03:59:14;;;;;;;2.25;0.60;;;;;;;10.88;100.00;96414.69;5079626;28;20064;-76
2023/11/05 04:01:49;;;;;;;4.10;0.50;;;;;;;10.87;100.00;96410.38;5064782;28;20051;-76
2023/11/05 04:04:20;;;;;;;4.75;0.70;;;;;;;10.84;100.00;96413.41;5052860;28;20075;-75
2023/11/05 04:06:53;;;;;;;4.75;0.98;;;;;;;10.78;100.00;96420.19;5052401;28;20063;-75
2023/11/05 04:09:22;;;;;;;1.40;0.40;;;;;;;10.80;100.00;96417.38;5045589;28;20056;-75
2023/11/05 04:11:50;;;;;;;2.45;0.75;;;;;;;10.79;100.00;96405.97;5052447;28;20041;-75
2023/11/05 04:14:18;;;;;;;2.05;0.63;;;;;;;10.67;100.00;96388.81;5069418;28;20136;-75
2023/11/05 04:16:48;;;;;;;2.58;0.57;;;;;;;10.74;100.00;96392.41;5069585;28;20087;-75
2023/11/05 04:19:17;;;;;;;3.20;0.70;;;;;;;10.77;100.00;96386.78;5050071;28;20434;-75
2023/11/05 04:21:45;;;;;;;3.88;0.80;;;;;;;10.79;100.00;96382.16;5046788;28;20051;-76
2023/11/05 04:24:18;;;;;;;6.38;0.85;;;;;;;10.77;100.00;96378.84;5033188;28;20045;-75
2023/11/05 04:26:46;;;;;;;3.53;0.57;;;;;;;10.71;100.00;96361.00;5033607;28;20061;-74
2023/11/05 04:29:14;;;;;;;2.50;0.80;;;;;;;10.67;100.00;96364.16;5045607;28;20264;-74
2023/11/05 04:31:42;;;;;;;1.52;0.52;;;;;;;10.58;100.00;96357.25;5046600;28;20383;-73
2023/11/05 04:34:10;;;;;;;1.83;0.60;;;;;;;10.54;100.00;96370.81;5055701;28;20112;-74
2023/11/05 04:36:41;;;;;;;4.35;0.80;;;;;;;10.59;100.00;96362.38;5058299;28;20048;-74
2023/11/05 04:39:12;;;;;;;3.85;0.60;;;;;;;10.62;100.00;96361.19;5047340;28;20070;-73
2023/11/05 04:41:40;;;;;;;5.47;0.60;;;;;;;10.73;100.00;96359.00;5065131;28;20574;-73
2023/11/05 04:44:12;;;;;;;3.58;0.63;;;;;;;10.63;100.00;96363.69;5050464;28;20052;-74
2023/11/05 04:46:41;;;;;;;5.40;1.02;;;;;;;10.60;100.00;96369.31;5066132;28;20628;-75
2023/11/05 04:49:09;;;;;;;4.53;0.65;;;;;;;10.78;100.00;96363.78;5048406;28;20511;-75
2023/11/05 04:51:43;;;;;;;4.90;0.40;;;;;;;10.67;100.00;96369.47;5048314;28;20041;-76
2023/11/05 04:54:12;;;;;;;4.22;0.80;;;;;;;10.64;100.00;96361.84;5065443;28;20525;-75
2023/11/05 04:56:41;;;;;;;4.05;0.65;;;;;;;10.58;100.00;96373.09;5049291;28;20033;-76
2023/11/05 04:59:12;;;;;;;4.93;0.90;;;;;;;10.51;100.00;96372.97;5048496;28;20568;-75
2023/11/05 05:01:40;;;;;;;4.80;0.80;;;;;;;10.49;100.00;96364.38;5043658;28;20055;-76
2023/11/05 05:04:10;;;;;;;7.93;0.60;;;;;;;10.54;100.00;96364.72;5032939;28;20688;-75
2023/11/05 05:06:39;;;;;;;3.42;0.50;;;;;;;10.53;100.00;96377.09;5049881;28;20087;-77
2023/11/05 05:09:19;;;;;;;3.30;0.98;;;;;;;10.57;100.00;96379.38;5035568;28;20075;-76
2023/11/05 05:11:47;;;;;;;2.90;0.65;;;;;;;10.52;100.00;96372.81;5043548;28;20068;-75
2023/11/05 05:14:15;;;;;;;3.33;0.80;;;;;;;10.71;100.00;96365.44;5047458;28;20091;-74
2023/11/05 05:16:43;;;;;;;3.00;0.68;;;;;;;10.68;100.00;96371.94;5027985;28;20045;-74
2023/11/05 05:19:12;;;;;;;5.25;0.50;;;;;;;10.60;100.00;96374.59;5063721;28;20153;-75
2023/11/05 05:21:44;;;;;;;2.25;0.80;;;;;;;10.57;100.00;96374.94;5065460;28;20139;-76
2023/11/05 05:24:14;;;;;;;3.75;0.85;;;;;;;10.55;100.00;96364.50;5037067;28;20063;-76
2023/11/05 05:26:43;;;;;;;3.15;0.80;;;;;;;10.54;100.00;96367.34;5032941;28;20041;-75
2023/11/05 05:29:11;;;;;;;1.80;0.55;;;;;;;10.52;100.00;96375.47;5048756;28;20107;-76
2023/11/05 05:31:42;;;;;;;4.43;0.75;;;;;;;10.49;100.00;96369.69;5043275;28;20068;-77
2023/11/05 05:34:13;;;;;;;3.58;0.70;;;;;;;10.57;100.00;96385.50;5046901;28;20106;-76
2023/11/05 05:36:42;;;;;;;4.43;0.57;;;;;;;10.62;100.00;96383.19;5029994;28;20045;-76
2023/11/05 05:39:11;;;;;;;1.80;0.50;;;;;;;10.55;100.00;96383.03;5046013;28;20051;-75
2023/11/05 05:41:45;;;;;;;2.83;0.88;;;;;;;10.56;100.00;96381.22;5036543;28;20064;-75
2023/11/05 05:44:13;;;;;;;4.82;0.80;;;;;;;10.52;100.00;96382.56;5049329;28;20061;-75
2023/11/05 05:46:42;;;;;;;2.38;0.75;;;;;;;10.57;100.00;96382.88;5052078;28;20098;-74
2023/11/05 05:49:10;;;;;;;4.50;0.70;;;;;;;10.59;100.00;96383.53;5048339;28;20037;-75
2023/11/05 05:51:38;;;;;;;4.57;0.70;;;;;;;10.54;100.00;96383.22;5047687;28;20056;-75
2023/11/05 05:54:06;;;;;;;3.25;0.73;;;;;;;10.55;100.00;96390.97;5053580;28;20113;-74
2023/11/05 05:56:39;;;;;;;2.50;0.60;;;;;;;10.55;100.00;96390.13;5062430;28;20045;-77
2023/11/05 05:59:10;;;;;;;8.32;1.00;;;;;;;10.62;100.00;96391.13;5049781;28;20098;-75
2023/11/05 06:01:39;;;;;;;5.53;0.98;;;;;;;10.64;100.00;96383.84;5024540;28;20090;-76
2023/11/05 06:04:07;;;;;;;3.90;0.73;;;;;;;10.68;100.00;96387.00;5051532;28;20068;-75
2023/11/05 06:06:36;;;;;;;2.72;0.88;;;;;;;10.68;100.00;96390.47;5052613;28;20041;-77
2023/11/05 06:09:07;;;;;;;5.07;0.70;;;;;;;10.67;100.00;96396.75;5046728;28;20059;-74
2023/11/05 06:11:36;;;;;;;3.55;0.90;;;;;;;10.63;100.00;96381.38;5049658;28;20049;-75
2023/11/05 06:14:07;;;;;;;3.72;1.00;;;;;;;10.59;100.00;96393.28;5057772;28;20045;-76
2023/11/05 06:16:36;;;;;;;4.10;0.75;;;;;;;10.66;100.00;96395.09;5050920;28;20041;-75
2023/11/05 06:19:05;;;;;;;4.63;0.82;;;;;;;10.69;100.00;96408.00;5045444;28;20042;-75
2023/11/05 06:21:34;;;;;;;3.75;0.88;;;;;;;10.70;100.00;96401.69;5044939;28;20107;-75
2023/11/05 06:24:03;;;;;;;3.35;0.65;;;;;;;10.75;100.00;96402.00;5061213;28;20049;-75
2023/11/05 06:26:33;;;;;;;5.68;0.90;;;;;;;10.76;100.00;96400.19;5047990;28;20049;-75
2023/11/05 06:29:02;;;;;;;4.30;0.80;;;;;;;10.75;100.00;96402.00;5066764;28;20044;-75
2023/11/05 06:31:30;;;;;;;3.67;0.70;;;;;;;10.79;100.00;96408.59;5044894;28;20060;-76
2023/11/05 06:34:03;;;;;;;5.20;0.93;;;;;;;10.86;100.00;96412.19;5047753;28;20054;-76
2023/11/05 06:36:33;;;;;;;2.45;0.70;;;;;;;10.87;100.00;96416.50;5051102;28;20045;-74
2023/11/05 06:39:03;;;;;;;5.70;0.80;;;;;;;10.94;100.00;96423.78;5034553;28;20045;-77
2023/11/05 06:41:32;;;;;;;3.05;0.77;;;;;;;10.96;100.00;96427.09;5042475;28;20057;-75
2023/11/05 06:44:02;;;;;;;5.07;0.70;;;;;;;10.98;100.00;96419.78;5050450;28;20520;-76
2023/11/05 06:46:31;;;;;;;5.38;0.93;;;;;;;10.97;100.00;96418.16;5055514;28;20091;-75
2023/11/05 06:49:02;;;;;;;5.35;0.75;;;;;;;10.99;100.00;96427.56;5071360;28;20095;-75
2023/11/05 06:51:30;;;;;;;3.90;0.83;;;;;;;10.97;100.00;96434.03;5051097;28;20048;-75
2023/11/05 06:53:57;;;;;;;3.08;0.57;;;;;;;10.94;100.00;96435.19;5057930;28;20127;-75
2023/11/05 06:56:28;;;;;;;4.95;0.70;;;;;;;10.90;100.00;96432.06;5055522;28;20052;-75
2023/11/05 06:59:00;;;;;;;2.05;0.50;;;;;;;11.00;100.00;96428.41;5050673;28;20502;-75
2023/11/05 07:01:29;;;;;;;2.50;0.80;;;;;;;10.99;100.00;96424.94;5031194;28;20053;-75
2023/11/05 07:03:57;;;;;;;2.20;0.75;;;;;;;11.08;100.00;96428.34;5057250;28;20140;-74
2023/11/05 07:06:27;;;;;;;4.90;0.85;;;;;;;10.97;100.00;96426.09;5058227;28;20076;-74
2023/11/05 07:09:02;;;;;;;3.33;0.60;;;;;;;11.02;100.00;96439.66;5055667;28;20041;-74
2023/11/05 07:11:31;;;;;;;2.38;0.50;;;;;;;11.01;100.00;96438.00;5030734;28;20038;-75
2023/11/05 07:13:59;;;;;;;3.42;0.50;;;;;;;10.97;100.00;96434.84;5052692;28;20056;-74
2023/11/05 07:16:32;;;;;;;4.05;0.73;;;;;;;10.95;100.00;96442.13;5053940;28;20049;-75
2023/11/05 07:19:00;;;;;;;4.43;0.60;;;;;;;11.04;100.00;96434.97;5054454;28;20056;-74
2023/11/05 07:21:29;;;;;;;3.38;0.60;;;;;;;11.05;100.00;96449.88;5043900;28;20045;-74
2023/11/05 07:23:57;;;;;;;0.63;0.23;;;;;;;11.07;100.00;96447.88;5055079;28;20079;-75
2023/11/05 07:26:27;;;;;;;2.67;0.70;;;;;;;11.15;100.00;96437.28;5054692;28;20102;-75
2023/11/05 07:28:59;;;;;;;2.65;0.40;;;;;;;11.16;100.00;96441.56;5053932;28;20568;-75
2023/11/05 07:31:30;;;;;;;3.13;0.70;;;;;;;11.17;100.00;96440.56;5046714;28;20072;-75
2023/11/05 07:33:59;;;;;;;4.85;0.80;;;;;;;11.32;100.00;96448.63;5054056;28;20053;-74
2023/11/05 07:36:32;;;;;;;3.60;0.50;;;;;;;11.34;100.00;96452.72;5062783;28;20048;-74
2023/11/05 07:39:00;;;;;;;4.65;0.70;;;;;;;11.30;100.00;96451.44;5062366;28;20077;-75
2023/11/05 07:41:28;;;;;;;2.40;0.40;;;;;;;11.10;100.00;96427.19;5031689;28;20049;-74
2023/11/05 07:43:58;;;;;;;2.42;0.50;;;;;;;11.34;100.00;96444.78;5059991;28;20057;-73
2023/11/05 07:46:26;;;;;;;2.50;0.40;;;;;;;11.38;100.00;96469.94;5059014;28;20095;-74
2023/11/05 07:48:55;;;;;;;2.83;0.68;;;;;;;11.36;100.00;96477.22;5052527;28;20050;-75
2023/11/05 07:51:23;;;;;;;1.27;0.28;;;;;;;11.40;100.00;96478.53;5061682;28;20116;-74
2023/11/05 07:53:53;;;;;;;2.03;0.45;;;;;;;11.38;100.00;96485.81;5089701;28;20048;-74
2023/11/05 07:56:22;;;;;;;1.80;0.20;;;;;;;11.41;100.00;96474.88;5068475;28;20090;-75
2023/11/05 07:58:53;;;;;;;1.20;0.30;;;;;;;11.40;100.00;96481.19;5073298;28;20045;-76
2023/11/05 08:01:26;;;;;;;1.98;0.50;;;;;;;11.50;100.00;96491.56;5045681;28;20135;-75
2023/11/05 08:03:56;;;;;;;2.55;0.30;;;;;;;11.39;100.00;96503.38;5036528;28;20045;-74
2023/11/05 08:06:24;;;;;;;1.33;0.25;;;;;;;11.49;100.00;96495.22;5054379;28;20045;-74
2023/11/05 08:08:53;;;;;;;0.50;0.10;;;;;;;11.47;100.00;96494.56;5058142;28;20049;-75
2023/11/05 08:11:22;;;;;;;1.15;0.28;;;;;;;11.51;100.00;96501.97;5055187;28;20196;-74
2023/11/05 08:13:50;;;;;;;0.38;0.13;;;;;;;11.62;100.00;96499.97;5055128;28;20052;-75
2023/11/05 08:16:18;;;;;;;2.75;0.30;;;;;;;11.73;100.00;96510.19;5063573;28;20434;-74
2023/11/05 08:18:47;;;;;;;0.32;0.20;;;;;;;11.93;100.00;96520.22;5048450;28;20049;-75
2023/11/05 08:21:15;;;;;;;1.73;0.55;;;;;;;12.05;100.00;96515.31;5035424;28;20057;-74
2023/11/05 08:23:43;;;;;;;1.75;0.30;;;;;;;12.24;100.00;96522.81;5031733;28;20057;-74
2023/11/05 08:26:14;;;;;;;0.63;0.40;;;;;;;12.43;100.00;96520.72;5071989;28;20052;-75
2023/11/05 08:28:45;;;;;;;0.40;0.20;;;;;;;12.48;100.00;96531.59;5065394;28;20045;-75
2023/11/05 08:31:15;;;;;;;2.28;0.20;;;;;;;12.55;100.00;96540.50;5049370;28;20063;-77
2023/11/05 08:33:43;;;;;;;;;;;;;;;12.67;100.00;96533.75;5057025;28;20053;-75
2023/11/05 08:36:12;;;;;;;1.45;0.40;;;;;;;12.62;100.00;96534.28;5058264;28;19920;-74
2023/11/05 08:38:40;;;;;;;0.68;0.28;;;;;;;12.56;100.00;96532.38;5067515;28;20048;-76
2023/11/05 08:41:08;;;;;;;0.30;0.20;;;;;;;12.74;100.00;96533.88;5061838;28;20051;-74
2023/11/05 08:43:40;;;;;;;;;;;;;;;12.86;100.00;96535.09;5073604;28;20068;-78
2023/11/05 08:46:10;;;;;;;0.93;0.20;;;;;;;12.82;100.00;96528.50;5056553;28;20405;-75
2023/11/05 08:48:38;;;;;;;1.70;0.20;;;;;;;12.99;100.00;96541.44;5029838;28;21116;-75
2023/11/05 08:51:06;;;;;;;1.70;0.40;;;;;;;12.87;100.00;96550.03;5049232;28;20041;-75
2023/11/05 08:53:34;;;;;;;0.77;0.10;;;;;;;12.83;100.00;96544.25;5048226;28;20053;-74
2023/11/05 08:56:05;;;;;;;5.05;0.20;;;;;;;12.76;100.00;96555.75;5027757;28;20040;-76
2023/11/05 08:58:33;;;;;;;;;;;;;;;12.76;100.00;96566.34;5070179;28;20099;-73
2023/11/05 09:01:04;;;;;;;0.75;0.30;;;;;;;12.74;100.00;96561.25;5060515;28;19924;-76
2023/11/05 09:03:48;;;;;;;0.50;0.20;;;;;;;12.47;100.00;96559.94;5045887;28;20045;-74
2023/11/05 09:06:16;;;;;;;0.68;0.20;;;;;;;12.46;100.00;96570.75;5066349;28;20079;-75
2023/11/05 09:08:44;;;;;;;1.45;0.30;;;;;;;12.41;100.00;96573.13;5061264;28;20135;-75
2023/11/05 09:11:14;;;;;;;0.93;0.20;;;;;;;12.53;100.00;96593.75;5047772;28;20053;-74
2023/11/05 09:13:43;;;;;;;1.10;0.40;;;;;;;12.48;100.00;96585.47;5062101;28;20493;-74
2023/11/05 09:16:15;;;;;;;0.50;0.20;;;;;;;12.39;100.00;96597.16;5048587;28;20068;-74
2023/11/05 09:18:43;;;;;;;;;;;;;;;12.31;100.00;96613.13;5070430;28;20428;-74
2023/11/05 09:21:12;;;;;;;0.88;0.20;;;;;;;12.10;100.00;96608.44;5053144;28;19972;-75
2023/11/05 09:23:40;;;;;;;1.55;0.20;;;;;;;12.13;100.00;96613.38;5057393;28;20052;-75
2023/11/05 09:26:09;;;;;;;1.58;0.30;;;;;;;12.23;100.00;96627.28;5050031;28;20047;-75
2023/11/05 09:28:39;;;;;;;1.23;0.28;;;;;;;12.19;100.00;96636.56;5053716;28;20045;-74
2023/11/05 09:31:10;;;;;;;1.10;0.20;;;;;;;12.10;100.00;96648.22;5049439;28;20039;-73
2023/11/05 09:33:55;;;;;;;0.47;0.20;;;;;;;11.96;100.00;96648.13;5047735;28;20029;-74
2023/11/05 09:36:23;;;;;;;0.73;0.30;;;;;;;11.90;100.00;96650.44;5045518;28;20047;-76
2023/11/05 09:38:56;;;;;;;0.98;0.30;;;;;;;11.97;100.00;96677.09;5070597;28;20053;-75
2023/11/05 09:41:28;;;;;;;1.08;0.30;;;;;;;11.64;100.00;96638.41;5055996;28;20041;-75
2023/11/05 09:43:59;;;;;;;1.17;0.30;;;;;;;11.80;100.00;96686.13;5057148;28;20056;-74
2023/11/05 09:46:30;;;;;;;1.95;0.20;;;;;;;11.86;100.00;96688.06;5033206;28;20064;-73
2023/11/05 09:48:59;;;;;;;0.30;0.20;;;;;;;11.94;100.00;96691.53;5051404;28;20048;-73
2023/11/05 09:51:27;;;;;;;0.47;0.20;;;;;;;11.69;100.00;96667.88;5033655;28;20040;-74
2023/11/05 09:53:56;;;;;;;0.60;0.20;;;;;;;11.72;100.00;96696.69;5045944;28;20049;-76
2023/11/05 09:56:27;;;;;;;0.20;0.20;;;;;;;11.49;100.00;96697.38;5045745;28;20136;-73
2023/11/05 09:59:01;;;;;;;2.05;0.32;;;;;;;11.58;100.00;96704.34;5050871;28;20048;-73
2023/11/05 10:01:35;;;;;;;0.40;0.20;;;;;;;11.65;100.00;96708.97;5053427;28;20049;-74
2023/11/05 10:04:08;;;;;;;0.93;0.30;;;;;;;11.62;100.00;96694.22;5051269;28;20064;-74
2023/11/05 10:06:36;;;;;;;1.25;0.40;;;;;;;11.75;100.00;96713.09;5035816;28;20136;-73
2023/11/05 10:09:09;;;;;;;0.85;0.30;;;;;;;11.72;100.00;96718.72;5053198;28;20559;-74
2023/11/05 10:11:45;;;;;;;1.17;0.40;;;;;;;11.73;100.00;96722.19;5043188;28;20125;-74
2023/11/05 10:14:14;;;;;;;0.40;0.20;;;;;;;11.68;100.00;96740.41;5045822;28;20080;-74
2023/11/05 10:16:45;;;;;;;2.65;0.50;;;;;;;11.58;100.00;96736.13;5049573;28;20493;-74
2023/11/05 10:19:22;;;;;;;1.98;0.50;;;;;;;11.59;100.00;96743.09;5059290;28;20409;-76
2023/11/05 10:21:52;;;;;;;0.50;0.30;;;;;;;11.48;100.00;96729.38;5048768;28;20141;-74
2023/11/05 10:24:40;;;;;;;0.40;0.20;;;;;;;11.52;100.00;96752.69;5051359;28;20103;-75
2023/11/05 10:27:09;;;;;;;1.98;0.50;;;;;;;11.55;100.00;96748.88;5068892;28;20125;-75
2023/11/05 10:29:39;;;;;;;0.40;0.30;;;;;;;11.59;100.00;96761.63;5070373;28;20049;-75
2023/11/05 10:32:09;;;;;;;1.58;0.50;;;;;;;11.58;100.00;96772.41;5043371;28;20064;-76
2023/11/05 10:34:39;;;;;;;;;;;;;;;11.57;100.00;96776.03;5055098;28;20041;-73
2023/11/05 10:37:08;;;;;;;0.88;0.32;;;;;;;11.53;100.00;96780.84;5069853;28;19964;-74
2023/11/05 10:39:36;;;;;;;2.03;0.35;;;;;;;11.45;100.00;96783.50;5054356;28;20045;-74
2023/11/05 10:42:12;;;;;;;2.47;0.43;;;;;;;11.47;100.00;96786.00;5033577;28;20083;-73
2023/11/05 10:44:43;;;;;;;0.40;0.35;;;;;;;11.52;100.00;96794.25;5050868;28;20036;-73
2023/11/05 10:47:12;;;;;;;1.48;0.47;;;;;;;11.45;100.00;96798.56;5051437;28;20064;-75
2023/11/05 10:49:45;;;;;;;1.27;0.47;;;;;;;11.52;100.00;96795.06;5046648;28;20128;-75
2023/11/05 10:52:13;;;;;;;2.13;0.50;;;;;;;11.57;100.00;96791.94;5044312;28;20406;-74
2023/11/05 10:54:42;;;;;;;0.88;0.40;;;;;;;11.67;100.00;96815.63;5054889;28;20404;-74
2023/11/05 10:57:41;;;;;;;0.65;0.30;;;;;;;11.63;100.00;96825.75;5034628;28;20393;-75
2023/11/05 11:00:45;;;;;;;1.27;0.40;;;;;;;11.72;100.00;96831.84;5053013;28;20409;-74
2023/11/05 11:03:14;;;;;;;1.08;0.50;;;;;;;11.73;100.00;96833.50;5048599;28;20052;-76
2023/11/05 11:05:57;;;;;;;1.67;0.73;;;;;;;11.64;100.00;96830.06;5050164;28;20503;-74
2023/11/05 11:08:29;;;;;;;1.42;0.40;;;;;;;11.66;100.00;96848.41;5047041;28;20041;-74
2023/11/05 11:11:09;;;;;;;1.27;0.50;;;;;;;11.69;100.00;96848.91;5053754;28;20053;-74
2023/11/05 11:13:39;;;;;;;1.00;0.50;;;;;;;11.72;100.00;96850.41;5042152;28;20045;-76
2023/11/05 11:16:08;;;;;;;1.70;0.52;;;;;;;11.68;100.00;96859.69;5071828;28;20487;-74
2023/11/05 11:18:40;;;;;;;1.27;0.32;;;;;;;11.66;100.00;96870.44;5039370;28;20049;-74
2023/11/05 11:21:11;;;;;;;0.73;0.47;;;;;;;11.68;100.00;96862.31;5051290;28;20490;-72
2023/11/05 11:23:39;;;;;;;1.55;0.43;;;;;;;11.72;100.00;96871.63;5042339;28;20059;-75
2023/11/05 11:26:20;;;;;;;3.67;1.67;;;;;;;11.81;100.00;96874.13;5063060;28;20124;-74
2023/11/05 11:28:55;;;;;;;1.55;0.45;;;;;;;11.89;100.00;96870.66;5053370;28;20052;-76
2023/11/05 11:31:25;;;;;;;0.60;0.28;;;;;;;11.99;100.00;96879.25;5088095;28;20059;-75
2023/11/05 11:33:54;;;;;;;1.17;0.40;;;;;;;12.01;100.00;96864.03;5056381;28;20429;-76
2023/11/05 11:36:24;;;;;;;2.03;0.32;;;;;;;12.09;100.00;96887.91;5067029;28;20059;-73
2023/11/05 11:38:53;;;;;;;2.75;0.43;;;;;;;11.81;100.00;96889.19;5057666;28;20053;-73
2023/11/05 11:41:22;;;;;;;1.90;0.30;;;;;;;11.80;100.00;96895.53;5049351;28;20045;-75
2023/11/05 11:43:52;;;;;;;0.77;0.30;;;;;;;11.73;100.00;96882.06;5027694;28;20543;-74